Time;durP1;ratioP1;P1;durP2;ratioP2;P2;SDS_P1;SDS_P2;PMS_P1;PMS_P2;Temp;Humidity;BMP_temperature;BMP_pressure;BME280_temperature;BME280_humidity;BME280_pressure;Samples;Min_cycle;Max_cycle;Signal;HPM_P1;HPM_P2
2022/03/01 00:04:33;;;;;;;1.55;1.23;;;;;;;18.67;nan;102765.13;10554625;28;20047;-79
2022/03/01 00:09:36;;;;;;;0.00;0.00;;;;;;;21.49;nan;102753.06;10563529;28;20053;-79
2022/03/01 00:14:37;;;;;;;0.00;0.00;;;;;;;22.34;nan;102748.53;10551845;27;20118;-80
2022/03/01 00:19:39;;;;;;;1.27;0.57;;;;;;;19.14;nan;102755.69;10576702;27;20382;-79
2022/03/01 00:24:41;;;;;;;0.00;0.00;;;;;;;20.30;nan;102749.84;10564072;27;20046;-79
2022/03/01 00:29:43;;;;;;;1.85;1.05;;;;;;;18.84;nan;102757.66;10546875;27;20510;-79
2022/03/01 00:34:47;;;;;;;0.35;0.25;;;;;;;18.34;nan;102767.84;10583673;27;20059;-79
2022/03/01 00:39:49;;;;;;;5.18;2.83;;;;;;;17.57;nan;102769.41;10554541;27;20051;-78
2022/03/01 00:44:50;;;;;;;2.90;1.40;;;;;;;17.28;nan;102765.16;10543333;27;20040;-79
2022/03/01 00:49:52;;;;;;;1.95;1.15;;;;;;;17.64;nan;102758.28;10565134;27;20444;-79
2022/03/01 00:54:54;;;;;;;6.32;3.40;;;;;;;17.05;nan;102759.31;10568069;27;20133;-79
2022/03/01 00:59:56;;;;;;;0.43;0.43;;;;;;;18.36;nan;102759.22;10530064;28;20052;-78
2022/03/01 01:04:58;;;;;;;0.00;0.00;;;;;;;18.39;nan;102748.84;10578562;28;20497;-80
2022/03/01 01:10:00;;;;;;;1.40;1.30;;;;;;;18.69;nan;102762.56;10560457;28;20093;-79
2022/03/01 01:15:03;;;;;;;0.32;0.32;;;;;;;19.53;nan;102748.56;10554626;28;20031;-79
2022/03/01 01:20:06;;;;;;;0.60;0.55;;;;;;;19.90;nan;102744.91;10571887;28;20473;-80
2022/03/01 01:25:22;;;;;;;9.35;1.80;;;;;;;17.27;nan;102752.09;10535370;28;20044;-80
2022/03/01 01:30:28;;;;;;;8.23;3.25;;;;;;;16.56;nan;102747.41;10550749;28;20486;-80
2022/03/01 01:35:33;;;;;;;3.63;2.15;;;;;;;17.21;nan;102749.31;10588329;28;20122;-80
2022/03/01 01:40:36;;;;;;;1.08;0.90;;;;;;;20.74;nan;102746.09;10578184;28;20066;-80
2022/03/01 01:45:37;;;;;;;0.63;0.63;;;;;;;19.00;nan;102751.06;10558432;28;20043;-79
2022/03/01 01:50:39;;;;;;;0.10;0.10;;;;;;;18.96;nan;102743.13;10568048;28;20089;-79
2022/03/01 01:55:41;;;;;;;1.73;0.90;;;;;;;16.33;nan;102739.78;10532159;28;20040;-80
2022/03/01 02:00:43;;;;;;;0.63;0.22;;;;;;;17.21;nan;102724.16;10582780;28;20036;-79
2022/03/01 02:05:45;;;;;;;2.55;1.27;;;;;;;17.63;nan;102717.44;10574756;27;20054;-80
2022/03/01 02:10:47;;;;;;;1.55;1.17;;;;;;;17.22;nan;102720.72;10569399;27;20134;-80
2022/03/01 02:15:49;;;;;;;1.80;1.63;;;;;;;17.41;nan;102721.22;10589144;27;20066;-79
2022/03/01 02:20:50;;;;;;;0.17;0.15;;;;;;;16.94;nan;102734.69;10559331;27;20045;-79
2022/03/01 02:25:52;;;;;;;0.43;0.43;;;;;;;17.76;nan;102731.66;10551450;27;20094;-80
2022/03/01 02:30:55;;;;;;;0.00;0.00;;;;;;;20.60;nan;102728.44;10546000;27;20089;-80
2022/03/01 02:35:56;;;;;;;0.00;0.00;;;;;;;20.96;nan;102722.81;10512559;27;20135;-80
2022/03/01 02:40:58;;;;;;;0.10;0.10;;;;;;;20.80;nan;102719.13;10547308;27;20134;-80
2022/03/01 02:45:59;;;;;;;0.00;0.00;;;;;;;20.70;nan;102728.56;10568747;27;20034;-80
2022/03/01 02:51:01;;;;;;;0.00;0.00;;;;;;;21.01;nan;102718.50;10550418;27;20508;-79
2022/03/01 02:56:04;;;;;;;0.70;0.60;;;;;;;19.86;nan;102723.88;10581021;27;20486;-79
2022/03/01 03:01:07;;;;;;;0.00;0.00;;;;;;;20.47;nan;102710.81;10568794;27;20043;-79
2022/03/01 03:06:09;;;;;;;0.00;0.00;;;;;;;21.34;nan;102722.31;10548417;27;20500;-79
2022/03/01 03:11:11;;;;;;;0.00;0.00;;;;;;;21.23;nan;102719.59;10569742;28;20054;-79
2022/03/01 03:16:13;;;;;;;0.25;0.25;;;;;;;20.46;nan;102719.53;10562755;27;20387;-79
2022/03/01 03:21:15;;;;;;;0.00;0.00;;;;;;;20.74;nan;102714.69;10564354;27;20052;-79
2022/03/01 03:26:19;;;;;;;0.00;0.00;;;;;;;20.08;nan;102712.00;10558444;27;20031;-79
2022/03/01 03:31:21;;;;;;;0.00;0.00;;;;;;;20.41;nan;102711.63;10544463;27;20036;-79
2022/03/01 03:36:23;;;;;;;0.00;0.00;;;;;;;20.64;nan;102710.16;10521182;27;20050;-79
2022/03/01 03:41:25;;;;;;;0.00;0.00;;;;;;;19.96;nan;102703.13;10549160;27;20040;-79
2022/03/01 03:46:27;;;;;;;0.00;0.00;;;;;;;18.71;nan;102704.31;10567516;27;20035;-79
2022/03/01 03:51:29;;;;;;;0.10;0.10;;;;;;;20.52;nan;102688.19;10564503;27;20070;-79
2022/03/01 03:56:30;;;;;;;0.00;0.00;;;;;;;20.26;nan;102696.59;10572551;27;20054;-79
2022/03/01 04:01:32;;;;;;;0.52;0.52;;;;;;;20.17;nan;102706.91;10573894;28;20047;-80
2022/03/01 04:06:35;;;;;;;0.00;0.00;;;;;;;21.03;nan;102695.81;10557867;28;20066;-79
2022/03/01 04:11:36;;;;;;;0.20;0.20;;;;;;;20.47;nan;102705.59;10576641;27;20035;-79
2022/03/01 04:16:42;;;;;;;0.00;0.00;;;;;;;20.45;nan;102705.56;10566602;28;20449;-80
2022/03/01 04:21:47;;;;;;;0.00;0.00;;;;;;;21.42;nan;102694.44;10535538;28;20042;-80
2022/03/01 04:26:48;;;;;;;0.00;0.00;;;;;;;20.54;nan;102704.81;10576436;28;20042;-79
2022/03/01 04:31:50;;;;;;;0.03;0.03;;;;;;;19.27;nan;102704.56;10557872;28;20055;-79
2022/03/01 04:36:52;;;;;;;0.00;0.00;;;;;;;19.31;nan;102716.81;10540444;28;20075;-79
2022/03/01 04:41:53;;;;;;;0.75;0.25;;;;;;;18.85;nan;102707.19;10555846;28;20048;-79
2022/03/01 04:46:55;;;;;;;0.65;0.47;;;;;;;17.96;nan;102710.44;10577121;27;20124;-79
2022/03/01 04:51:57;;;;;;;1.00;0.52;;;;;;;18.91;nan;102706.44;10559819;27;20051;-79
2022/03/01 04:56:59;;;;;;;0.22;0.22;;;;;;;17.65;nan;102709.69;10569471;27;20041;-80
2022/03/01 05:02:01;;;;;;;6.85;4.20;;;;;;;16.22;nan;102704.75;10559815;28;20073;-80
2022/03/01 05:07:05;;;;;;;3.53;2.05;;;;;;;16.49;nan;102700.38;10557896;28;20036;-79
2022/03/01 05:12:08;;;;;;;8.43;3.30;;;;;;;17.00;nan;102713.13;10552770;28;20590;-78
2022/03/01 05:17:11;;;;;;;0.25;0.25;;;;;;;18.31;nan;102706.06;10555880;28;20390;-79
2022/03/01 05:22:13;;;;;;;0.50;0.43;;;;;;;17.56;nan;102712.91;10560555;28;20556;-79
2022/03/01 05:27:15;;;;;;;0.82;0.77;;;;;;;18.15;nan;102711.75;10554806;28;20403;-79
2022/03/01 05:32:17;;;;;;;7.68;4.20;;;;;;;16.99;nan;102708.75;10575514;28;20047;-79
2022/03/01 05:37:19;;;;;;;5.80;1.23;;;;;;;18.30;nan;102706.88;10537614;28;20050;-80
2022/03/01 05:42:21;;;;;;;1.50;1.08;;;;;;;16.95;nan;102716.50;10573824;27;20039;-79
2022/03/01 05:47:23;;;;;;;5.35;2.33;;;;;;;17.43;nan;102703.88;10542137;28;20498;-80
2022/03/01 05:52:25;;;;;;;1.50;1.40;;;;;;;18.62;nan;102704.13;10563617;28;20052;-80
2022/03/01 05:57:28;;;;;;;0.38;0.38;;;;;;;18.43;nan;102699.38;10533540;28;20069;-80
2022/03/01 06:02:30;;;;;;;3.28;1.95;;;;;;;16.27;nan;102700.59;10563285;28;20136;-80
2022/03/01 06:07:32;;;;;;;6.55;2.58;;;;;;;16.65;nan;102695.63;10563853;28;20040;-80
2022/03/01 06:12:34;;;;;;;12.18;5.82;;;;;;;15.65;nan;102693.38;10535061;28;20043;-79
2022/03/01 06:17:36;;;;;;;4.65;2.15;;;;;;;15.92;nan;102695.13;10569753;28;20047;-80
2022/03/01 06:22:41;;;;;;;2.10;1.38;;;;;;;17.08;nan;102699.50;10563167;28;20051;-80
2022/03/01 06:27:43;;;;;;;3.33;2.38;;;;;;;16.54;nan;102708.31;10562244;28;20044;-79
2022/03/01 06:32:44;;;;;;;5.93;2.17;;;;;;;15.99;nan;102702.28;10562045;28;20073;-79
2022/03/01 06:37:46;;;;;;;4.10;2.03;;;;;;;15.82;nan;102705.19;10545886;28;20051;-79
2022/03/01 06:42:48;;;;;;;3.60;1.83;;;;;;;15.21;nan;102712.66;10559545;28;20077;-79
2022/03/01 06:47:50;;;;;;;7.25;4.05;;;;;;;15.53;nan;102707.69;10548084;28;20131;-80
2022/03/01 06:52:52;;;;;;;10.07;4.93;;;;;;;15.35;nan;102707.94;10573259;28;20407;-80
2022/03/01 06:57:56;;;;;;;12.73;3.08;;;;;;;16.04;nan;102711.13;10538154;28;20136;-79
2022/03/01 07:02:58;;;;;;;2.05;1.23;;;;;;;16.23;nan;102711.72;10573318;28;20047;-79
2022/03/01 07:07:59;;;;;;;7.43;4.13;;;;;;;15.82;nan;102725.97;10555196;28;20575;-79
2022/03/01 07:13:01;;;;;;;17.23;8.90;;;;;;;14.42;nan;102730.47;10565134;27;20039;-79
2022/03/01 07:18:04;;;;;;;10.50;4.90;;;;;;;15.84;nan;102729.56;10577881;27;20035;-79
2022/03/01 07:23:07;;;;;;;2.03;1.33;;;;;;;16.68;nan;102729.56;10561365;27;20054;-80
2022/03/01 07:28:08;;;;;;;11.30;5.10;;;;;;;15.99;nan;102729.19;10576437;27;20046;-79
2022/03/01 07:33:11;;;;;;;5.95;3.25;;;;;;;17.20;nan;102721.50;10571116;27;20051;-79
2022/03/01 07:38:13;;;;;;;0.85;0.80;;;;;;;17.89;nan;102731.13;10568930;27;20035;-80
2022/03/01 07:43:16;;;;;;;10.48;4.88;;;;;;;17.09;nan;102740.31;10556344;27;20490;-80
2022/03/01 07:48:17;;;;;;;10.27;4.50;;;;;;;16.72;nan;102739.22;10542968;28;20036;-79
2022/03/01 07:53:19;;;;;;;5.65;2.50;;;;;;;17.88;nan;102739.78;10570658;28;20482;-80
2022/03/01 07:58:23;;;;;;;3.40;2.08;;;;;;;19.06;nan;102741.59;10533087;28;20426;-79
2022/03/01 08:03:25;;;;;;;7.30;2.90;;;;;;;18.18;nan;102743.16;10529390;28;20507;-80
2022/03/01 08:08:27;;;;;;;9.02;4.47;;;;;;;18.15;nan;102754.41;10563924;27;20051;-79
2022/03/01 08:13:29;;;;;;;8.45;2.33;;;;;;;18.10;nan;102755.13;10555154;27;20126;-79
2022/03/01 08:18:31;;;;;;;9.38;5.68;;;;;;;18.63;nan;102763.31;10558579;28;20051;-79
2022/03/01 08:23:34;;;;;;;5.63;2.35;;;;;;;17.23;nan;102765.88;10543149;28;20043;-79
2022/03/01 08:28:35;;;;;;;7.22;3.10;;;;;;;18.29;nan;102765.13;10538919;27;20039;-80
2022/03/01 08:33:37;;;;;;;9.73;4.32;;;;;;;18.04;nan;102771.50;10533792;27;20400;-79
2022/03/01 08:38:46;;;;;;;6.22;2.25;;;;;;;19.11;nan;102776.50;10552471;27;20039;-79
2022/03/01 08:43:48;;;;;;;1.02;0.55;;;;;;;19.78;nan;102768.16;10529888;28;20048;-80
2022/03/01 08:48:53;;;;;;;8.93;3.85;;;;;;;18.94;nan;102750.06;10539960;28;20044;-80
2022/03/01 08:53:55;;;;;;;5.43;2.72;;;;;;;18.34;nan;102771.38;10540549;28;20221;-80
2022/03/01 08:58:57;;;;;;;8.38;1.88;;;;;;;18.86;nan;102768.16;10556906;28;20055;-80
2022/03/01 09:04:00;;;;;;;6.50;1.83;;;;;;;18.48;nan;102768.19;10532821;28;20053;-80
2022/03/01 09:09:02;;;;;;;10.65;4.53;;;;;;;18.19;nan;102765.78;10549804;28;20134;-80
2022/03/01 09:14:07;;;;;;;2.30;1.05;;;;;;;20.03;nan;102761.63;10544163;27;20138;-80
2022/03/01 09:19:10;;;;;;;13.98;6.88;;;;;;;16.35;nan;102779.72;10572799;27;20039;-79
2022/03/01 09:24:12;;;;;;;10.05;4.55;;;;;;;18.99;nan;102783.25;10536834;27;20051;-79
2022/03/01 09:29:17;;;;;;;17.92;5.28;;;;;;;18.60;nan;102784.13;10548633;27;20039;-80
2022/03/01 09:34:19;;;;;;;4.97;2.20;;;;;;;20.09;nan;102771.34;10558581;27;20044;-79
2022/03/01 09:39:22;;;;;;;11.30;4.68;;;;;;;18.76;nan;102769.69;10557368;28;20409;-80
2022/03/01 09:44:24;;;;;;;6.30;3.00;;;;;;;18.15;nan;102780.47;10588321;27;20142;-79
2022/03/01 09:49:26;;;;;;;14.63;7.90;;;;;;;18.14;nan;102783.03;10566698;27;20155;-79
2022/03/01 09:54:28;;;;;;;11.40;4.75;;;;;;;18.18;nan;102784.88;10605944;27;20051;-80
2022/03/01 09:59:30;;;;;;;2.20;1.23;;;;;;;19.96;nan;102780.72;10580019;27;20039;-80
2022/03/01 10:04:33;;;;;;;1.27;0.22;;;;;;;19.97;nan;102778.13;10559734;27;20051;-80
2022/03/01 10:09:40;;;;;;;12.00;5.63;;;;;;;20.17;nan;102774.97;10546444;27;20040;-80
2022/03/01 10:14:45;;;;;;;16.85;7.07;;;;;;;18.69;nan;102773.88;10557044;27;20090;-80
2022/03/01 10:20:01;;;;;;;12.95;4.68;;;;;;;19.26;nan;102775.94;10556626;28;20048;-79
2022/03/01 10:25:15;;;;;;;17.58;6.97;;;;;;;18.99;nan;102783.25;10583113;28;20046;-80
2022/03/01 10:30:27;;;;;;;2.00;1.45;;;;;;;22.08;nan;102770.22;10563000;28;20065;-80
2022/03/01 10:35:29;;;;;;;3.30;1.95;;;;;;;22.45;nan;102769.63;10556451;27;20134;-80
2022/03/01 10:40:39;;;;;;;3.42;2.03;;;;;;;18.95;nan;102788.38;10584610;27;20043;-78
2022/03/01 10:45:45;;;;;;;4.43;1.55;;;;;;;20.17;nan;102769.72;10562465;27;20050;-78
2022/03/01 10:51:04;;;;;;;16.50;8.15;;;;;;;19.36;nan;102777.00;10571106;27;20463;-78
2022/03/01 10:56:11;;;;;;;13.40;6.95;;;;;;;20.38;nan;102765.66;10516664;28;20115;-79
2022/03/01 11:01:13;;;;;;;3.58;1.65;;;;;;;21.37;nan;102769.56;10520670;28;20411;-80
2022/03/01 11:06:16;;;;;;;16.58;8.15;;;;;;;19.64;nan;102783.63;10560728;28;20169;-77
2022/03/01 11:11:45;;;;;;;1.50;1.20;;;;;;;22.35;nan;102774.78;10564592;27;20051;-80
2022/03/01 11:17:04;;;;;;;10.02;4.22;;;;;;;20.43;nan;102777.09;10544673;27;20075;-81
2022/03/01 11:22:40;;;;;;;7.18;4.10;;;;;;;21.78;nan;102769.09;10550211;27;20142;-80
2022/03/01 11:27:44;;;;;;;9.32;4.80;;;;;;;21.30;nan;102767.72;10563714;27;20042;-80
2022/03/01 11:32:55;;;;;;;5.72;3.08;;;;;;;22.78;nan;102768.91;10620031;27;20039;-80
2022/03/01 11:38:12;;;;;;;6.78;3.35;;;;;;;22.25;nan;102761.59;10565495;27;20405;-80
2022/03/01 11:43:23;;;;;;;4.75;2.85;;;;;;;21.93;nan;102764.88;10522730;28;20066;-79
2022/03/01 11:48:28;;;;;;;18.83;7.55;;;;;;;19.60;nan;102761.78;10554984;27;20551;-80
2022/03/01 11:53:34;;;;;;;17.30;7.70;;;;;;;20.02;nan;102757.28;10566518;28;20046;-79
2022/03/01 11:58:37;;;;;;;13.35;5.95;;;;;;;19.76;nan;102754.22;10579525;28;20130;-79
2022/03/01 12:03:39;;;;;;;6.20;3.28;;;;;;;21.90;nan;102739.47;10562096;27;20036;-80
2022/03/01 12:08:41;;;;;;;16.63;7.93;;;;;;;20.01;nan;102752.91;10549022;27;20036;-80
2022/03/01 12:13:46;;;;;;;8.38;4.25;;;;;;;20.33;nan;102744.66;10563696;28;20044;-80
2022/03/01 12:18:48;;;;;;;5.47;3.38;;;;;;;21.61;nan;102736.63;10550748;28;20122;-79
2022/03/01 12:23:52;;;;;;;4.60;3.13;;;;;;;22.04;nan;102734.31;10560266;27;20043;-79
2022/03/01 12:28:58;;;;;;;5.85;2.35;;;;;;;21.70;nan;102731.47;10534168;27;20449;-79
2022/03/01 12:34:04;;;;;;;0.32;0.20;;;;;;;23.16;nan;102713.84;10529046;27;20047;-80
2022/03/01 12:39:14;;;;;;;10.30;4.55;;;;;;;20.70;nan;102718.97;10541881;28;20040;-80
2022/03/01 12:44:46;;;;;;;12.17;5.97;;;;;;;20.46;nan;102709.06;10560609;27;20507;-79
2022/03/01 12:49:48;;;;;;;8.57;3.75;;;;;;;21.28;nan;102701.28;10541857;28;20557;-80
2022/03/01 12:54:51;;;;;;;1.25;0.80;;;;;;;22.00;nan;102694.06;10527468;28;20044;-79
2022/03/01 12:59:53;;;;;;;0.00;0.00;;;;;;;23.99;nan;102684.97;10518043;28;20399;-81
2022/03/01 13:04:56;;;;;;;4.05;2.38;;;;;;;21.88;nan;102691.38;10542488;28;20075;-80
2022/03/01 13:10:03;;;;;;;1.65;1.55;;;;;;;23.92;nan;102678.81;10533914;28;20085;-80
2022/03/01 13:15:05;;;;;;;9.02;4.63;;;;;;;21.64;nan;102685.06;10512790;28;20044;-80
2022/03/01 13:20:07;;;;;;;14.50;6.68;;;;;;;21.02;nan;102688.81;10558527;28;20069;-80
2022/03/01 13:25:09;;;;;;;7.15;4.05;;;;;;;20.87;nan;102690.41;10558598;28;20058;-79
2022/03/01 13:30:28;;;;;;;4.45;4.05;;;;;;;23.72;nan;102696.38;10529947;28;20124;-79
2022/03/01 13:35:31;;;;;;;5.78;2.90;;;;;;;22.68;nan;102704.06;10549866;28;20062;-79
2022/03/01 13:40:36;;;;;;;3.60;1.90;;;;;;;20.98;nan;102697.50;10586093;28;20139;-79
2022/03/01 13:45:41;;;;;;;5.88;2.30;;;;;;;22.14;nan;102690.63;10538127;28;20212;-80
2022/03/01 13:50:45;;;;;;;5.15;1.95;;;;;;;22.76;nan;102676.06;10565432;28;20452;-80
2022/03/01 13:55:47;;;;;;;2.33;1.98;;;;;;;22.85;nan;102671.72;10549320;28;20036;-79
2022/03/01 14:00:52;;;;;;;7.32;6.70;;;;;;;25.22;nan;102666.84;10506386;28;20491;-79
2022/03/01 14:06:03;;;;;;;1.08;0.98;;;;;;;25.44;nan;102664.03;10573219;27;20044;-80
2022/03/01 14:11:07;;;;;;;7.88;3.70;;;;;;;22.71;nan;102675.19;10550734;27;20044;-80
2022/03/01 14:16:28;;;;;;;0.00;0.00;;;;;;;25.63;nan;102652.47;10569668;28;20050;-79
2022/03/01 14:21:31;;;;;;;2.08;0.50;;;;;;;24.62;nan;102638.22;10551698;28;20106;-80
2022/03/01 14:26:33;;;;;;;0.00;0.00;;;;;;;25.31;nan;102621.91;10591854;27;20081;-79
2022/03/01 14:31:40;;;;;;;1.17;0.50;;;;;;;24.24;nan;102622.56;10589976;27;20493;-80
2022/03/01 14:36:48;;;;;;;0.00;0.00;;;;;;;24.72;nan;102613.59;10544242;27;20036;-80
2022/03/01 14:41:55;;;;;;;1.75;1.65;;;;;;;26.28;nan;102617.41;10540969;28;20453;-79
2022/03/01 14:46:56;;;;;;;0.00;0.00;;;;;;;25.26;nan;102625.47;10574639;28;20046;-79
2022/03/01 14:51:58;;;;;;;15.82;11.55;;;;;;;24.45;nan;102625.13;10565551;28;20035;-79
2022/03/01 14:57:00;;;;;;;4.28;1.60;;;;;;;23.60;nan;102618.34;10584106;28;20046;-79
2022/03/01 15:02:02;;;;;;;0.17;0.17;;;;;;;25.46;nan;102609.50;10584355;28;20036;-79
2022/03/01 15:07:04;;;;;;;0.00;0.00;;;;;;;25.74;nan;102612.75;10565817;28;20100;-79
2022/03/01 15:12:06;;;;;;;0.65;0.65;;;;;;;25.74;nan;102612.75;10560447;27;20035;-80
2022/03/01 15:17:08;;;;;;;5.60;1.63;;;;;;;23.49;nan;102620.13;10587685;27;20499;-79
2022/03/01 15:22:26;;;;;;;12.15;4.10;;;;;;;22.88;nan;102608.66;10599545;27;20058;-79
2022/03/01 15:27:28;;;;;;;6.78;2.97;;;;;;;23.06;nan;102605.19;10547762;28;20062;-79
2022/03/01 15:32:29;;;;;;;5.63;3.00;;;;;;;22.65;nan;102604.25;10560411;28;20146;-79
2022/03/01 15:37:32;;;;;;;0.00;0.00;;;;;;;25.76;nan;102610.09;10582528;28;20487;-79
2022/03/01 15:42:37;;;;;;;1.30;0.85;;;;;;;23.72;nan;102599.88;10544500;28;20462;-79
2022/03/01 15:47:41;;;;;;;0.00;0.00;;;;;;;24.97;nan;102593.19;10564135;28;20039;-79
2022/03/01 15:52:44;;;;;;;1.27;0.68;;;;;;;26.01;nan;102588.69;10560626;28;20048;-79
2022/03/01 15:57:47;;;;;;;1.60;1.30;;;;;;;25.67;nan;102589.97;10562662;28;20376;-79
2022/03/01 16:02:49;;;;;;;0.00;0.00;;;;;;;25.94;nan;102596.69;10545408;28;20436;-79
2022/03/01 16:07:51;;;;;;;3.30;3.10;;;;;;;27.15;nan;102597.63;10562457;28;20040;-79
2022/03/01 16:12:53;;;;;;;1.35;1.25;;;;;;;25.85;nan;102601.19;10561873;28;20135;-79
2022/03/01 16:18:15;;;;;;;1.70;1.58;;;;;;;25.18;nan;102601.81;10560400;28;20089;-79
2022/03/01 16:23:20;;;;;;;0.80;0.80;;;;;;;23.28;nan;102600.81;10561406;28;20043;-79
2022/03/01 16:28:22;;;;;;;0.22;0.20;;;;;;;25.41;nan;102592.84;10562660;28;20071;-79
2022/03/01 16:33:24;;;;;;;0.00;0.00;;;;;;;28.43;nan;102575.75;10579444;28;20487;-79
2022/03/01 16:38:26;;;;;;;2.05;1.95;;;;;;;28.12;nan;102576.41;10561580;28;20044;-79
2022/03/01 16:43:31;;;;;;;0.30;0.30;;;;;;;27.68;nan;102586.13;10578628;28;20047;-79
2022/03/01 16:48:32;;;;;;;0.98;0.98;;;;;;;23.95;nan;102608.66;10560346;28;20491;-79
2022/03/01 16:53:36;;;;;;;0.00;0.00;;;;;;;25.17;nan;102595.66;10559878;28;20109;-79
2022/03/01 16:58:39;;;;;;;0.00;0.00;;;;;;;27.36;nan;102595.53;10551538;28;20135;-79
2022/03/01 17:03:42;;;;;;;0.00;0.00;;;;;;;24.12;nan;102621.75;10542044;28;20039;-79
2022/03/01 17:08:45;;;;;;;0.00;0.00;;;;;;;27.11;nan;102601.25;10554061;28;20039;-79
2022/03/01 17:13:46;;;;;;;0.00;0.00;;;;;;;27.69;nan;102594.06;10546589;28;20097;-79
2022/03/01 17:18:48;;;;;;;0.00;0.00;;;;;;;27.22;nan;102588.69;10535970;28;20046;-79
2022/03/01 17:23:52;;;;;;;3.92;3.40;;;;;;;26.34;nan;102597.09;10528941;28;20064;-79
2022/03/01 17:28:53;;;;;;;0.00;0.00;;;;;;;25.91;nan;102594.06;10552243;28;20059;-79
2022/03/01 17:33:55;;;;;;;0.20;0.20;;;;;;;25.80;nan;102601.25;10565169;28;20074;-78
2022/03/01 17:38:57;;;;;;;0.00;0.00;;;;;;;23.51;nan;102608.72;10549820;28;20039;-80
2022/03/01 17:43:58;;;;;;;0.00;0.00;;;;;;;25.95;nan;102608.97;10571602;27;20449;-79
2022/03/01 17:49:00;;;;;;;0.00;0.00;;;;;;;25.38;nan;102604.31;10551465;28;20391;-79
2022/03/01 17:54:03;;;;;;;0.00;0.00;;;;;;;25.70;nan;102608.38;10549962;27;20039;-79
2022/03/01 17:59:05;;;;;;;0.40;0.40;;;;;;;25.29;nan;102599.94;10582329;27;20050;-79
2022/03/01 18:04:13;;;;;;;0.00;0.00;;;;;;;25.76;nan;102610.09;10559881;27;20039;-79
2022/03/01 18:09:15;;;;;;;0.00;0.00;;;;;;;25.61;nan;102613.78;10578044;27;20068;-78
2022/03/01 18:14:17;;;;;;;0.00;0.00;;;;;;;24.62;nan;102614.50;10557549;28;20392;-79
2022/03/01 18:19:19;;;;;;;0.00;0.00;;;;;;;24.67;nan;102616.25;10558254;27;20046;-79
2022/03/01 18:24:27;;;;;;;0.00;0.00;;;;;;;25.49;nan;102612.13;10584399;27;20212;-79
2022/03/01 18:29:29;;;;;;;0.00;0.00;;;;;;;25.27;nan;102633.41;10546383;27;20085;-79
2022/03/01 18:34:31;;;;;;;0.00;0.00;;;;;;;25.61;nan;102632.25;10551215;27;20464;-79
2022/03/01 18:39:40;;;;;;;0.00;0.00;;;;;;;25.87;nan;102616.13;10550228;28;20516;-79
2022/03/01 18:44:42;;;;;;;0.10;0.10;;;;;;;24.53;nan;102618.94;10551548;28;20510;-79
2022/03/01 18:49:44;;;;;;;0.00;0.00;;;;;;;25.39;nan;102616.63;10559471;28;20078;-80
2022/03/01 18:54:46;;;;;;;0.00;0.00;;;;;;;24.88;nan;102624.91;10565246;28;20069;-78
2022/03/01 18:59:47;;;;;;;0.00;0.00;;;;;;;25.00;nan;102619.53;10594932;27;20055;-78
2022/03/01 19:04:49;;;;;;;0.00;0.00;;;;;;;24.93;nan;102617.81;10583983;27;20391;-79
2022/03/01 19:09:51;;;;;;;0.00;0.00;;;;;;;23.85;nan;102626.19;10560853;28;20055;-79
2022/03/01 19:14:57;;;;;;;3.22;3.03;;;;;;;24.26;nan;102617.28;10568323;27;20039;-80
2022/03/01 19:20:00;;;;;;;0.00;0.00;;;;;;;24.98;nan;102615.16;10528197;27;20137;-79
2022/03/01 19:25:04;;;;;;;0.00;0.00;;;;;;;24.91;nan;102608.19;10541069;27;20044;-79
2022/03/01 19:30:08;;;;;;;0.00;0.00;;;;;;;24.53;nan;102608.38;10536114;27;20032;-79
2022/03/01 19:35:12;;;;;;;0.00;0.00;;;;;;;23.67;nan;102617.44;10567458;27;20449;-79
2022/03/01 19:40:14;;;;;;;0.00;0.00;;;;;;;24.17;nan;102615.59;10552833;28;20048;-79
2022/03/01 19:45:16;;;;;;;0.10;0.10;;;;;;;24.50;nan;102610.16;10553033;27;20138;-79
2022/03/01 19:50:21;;;;;;;0.00;0.00;;;;;;;24.95;nan;102610.78;10562768;27;20143;-79
2022/03/01 19:55:24;;;;;;;0.00;0.00;;;;;;;24.98;nan;102609.88;10575630;27;20379;-80
2022/03/01 20:00:29;;;;;;;0.00;0.00;;;;;;;25.22;nan;102614.06;10558157;28;20075;-80
2022/03/01 20:05:34;;;;;;;0.00;0.00;;;;;;;24.83;nan;102621.44;10522366;28;20062;-81
2022/03/01 20:10:38;;;;;;;0.00;0.00;;;;;;;23.77;nan;102634.97;10576155;27;20393;-80
2022/03/01 20:15:43;;;;;;;0.00;0.00;;;;;;;23.60;nan;102632.34;10567278;27;20058;-80
2022/03/01 20:20:46;;;;;;;0.00;0.00;;;;;;;23.65;nan;102634.13;10546250;28;20028;-80
2022/03/01 20:25:50;;;;;;;0.00;0.00;;;;;;;24.83;nan;102617.03;10556188;27;20052;-79
2022/03/01 20:30:53;;;;;;;0.00;0.00;;;;;;;25.34;nan;102624.53;10560776;28;20111;-79
2022/03/01 20:35:55;;;;;;;0.00;0.00;;;;;;;24.93;nan;102611.69;10537810;27;20517;-81
2022/03/01 20:40:58;;;;;;;0.00;0.00;;;;;;;25.11;nan;102611.53;10557111;28;20134;-80
2022/03/01 20:46:01;;;;;;;0.00;0.00;;;;;;;25.21;nan;102617.59;10539855;28;20499;-81
2022/03/01 20:51:04;;;;;;;0.00;0.00;;;;;;;21.97;nan;102632.81;10543150;28;20078;-80
2022/03/01 20:56:06;;;;;;;0.00;0.00;;;;;;;23.83;nan;102625.31;10553988;28;20055;-79
2022/03/01 21:01:08;;;;;;;0.00;0.00;;;;;;;22.06;nan;102625.00;10534064;28;20514;-80
2022/03/01 21:06:09;;;;;;;0.00;0.00;;;;;;;22.08;nan;102632.88;10523604;28;20111;-80
2022/03/01 21:11:12;;;;;;;0.00;0.00;;;;;;;22.57;nan;102629.59;10530366;28;20559;-79
2022/03/01 21:16:14;;;;;;;0.00;0.00;;;;;;;20.70;nan;102640.41;10559224;28;20043;-79
2022/03/01 21:21:16;;;;;;;0.00;0.00;;;;;;;21.49;nan;102633.31;10551404;28;20349;-79
2022/03/01 21:26:18;;;;;;;0.00;0.00;;;;;;;23.94;nan;102618.28;10553511;28;20052;-80
2022/03/01 21:31:22;;;;;;;0.00;0.00;;;;;;;20.81;nan;102622.25;10526781;28;20094;-80
2022/03/01 21:36:24;;;;;;;0.00;0.00;;;;;;;23.56;nan;102616.59;10555980;28;20553;-79
2022/03/01 21:41:26;;;;;;;0.00;0.00;;;;;;;22.92;nan;102615.66;10553007;28;20051;-80
2022/03/01 21:46:28;;;;;;;0.00;0.00;;;;;;;23.91;nan;102613.88;10551027;28;20129;-79
2022/03/01 21:51:31;;;;;;;0.00;0.00;;;;;;;22.14;nan;102618.03;10557940;28;20055;-79
2022/03/01 21:56:33;;;;;;;0.00;0.00;;;;;;;21.07;nan;102621.59;10552700;28;20039;-79
2022/03/01 22:01:36;;;;;;;0.00;0.00;;;;;;;21.90;nan;102620.53;10543090;28;20058;-81
2022/03/01 22:06:38;;;;;;;0.00;0.00;;;;;;;22.07;nan;102621.50;10537250;28;20405;-79
2022/03/01 22:11:40;;;;;;;0.10;0.10;;;;;;;23.33;nan;102609.59;10523690;28;20509;-79
2022/03/01 22:16:43;;;;;;;0.00;0.00;;;;;;;23.45;nan;102617.47;10543163;28;20043;-79
2022/03/01 22:21:44;;;;;;;0.00;0.00;;;;;;;24.38;nan;102609.34;10571238;27;20552;-79
2022/03/01 22:26:46;;;;;;;0.00;0.00;;;;;;;23.57;nan;102615.69;10589192;27;20044;-79
2022/03/01 22:31:48;;;;;;;0.00;0.00;;;;;;;23.88;nan;102620.91;10575626;27;20506;-79
2022/03/01 22:36:50;;;;;;;0.00;0.00;;;;;;;24.49;nan;102616.31;10602904;27;20048;-79
2022/03/01 22:41:53;;;;;;;0.38;0.38;;;;;;;23.54;nan;102613.09;10573954;28;20047;-79
2022/03/01 22:46:55;;;;;;;0.00;0.00;;;;;;;23.35;nan;102613.09;10549018;28;20057;-79
2022/03/01 22:51:57;;;;;;;0.00;0.00;;;;;;;24.11;nan;102612.97;10570007;27;20110;-80
2022/03/01 22:56:58;;;;;;;0.00;0.00;;;;;;;24.20;nan;102612.06;10546885;27;20044;-81
2022/03/01 23:02:00;;;;;;;0.00;0.00;;;;;;;24.17;nan;102615.59;10565313;27;20153;-80
2022/03/01 23:12:25;;;;;;;0.00;0.00;;;;;;;21.19;nan;102608.59;10554051;28;20059;-79
2022/03/01 23:17:26;;;;;;;0.00;0.00;;;;;;;22.81;nan;102610.41;10558702;28;20053;-82
2022/03/01 23:22:28;;;;;;;0.00;0.00;;;;;;;23.38;nan;102592.06;10588733;27;20051;-81
2022/03/01 23:27:32;;;;;;;0.00;0.00;;;;;;;22.38;nan;102597.97;10554878;27;20397;-81
2022/03/01 23:32:34;;;;;;;0.00;0.00;;;;;;;21.48;nan;102594.00;10580507;27;20513;-81
2022/03/01 23:37:38;;;;;;;0.00;0.00;;;;;;;20.77;nan;102594.25;10565671;27;20035;-82
2022/03/01 23:42:39;;;;;;;0.00;0.00;;;;;;;22.04;nan;102600.47;10559810;28;20510;-82
2022/03/01 23:47:41;;;;;;;0.00;0.00;;;;;;;24.30;nan;102589.19;10562364;27;20039;-82
2022/03/01 23:52:43;;;;;;;0.00;0.00;;;;;;;22.68;nan;102592.88;10534010;28;20528;-81